sensor_id;sensor_type;location;lat;lon;timestamp;temperature;humidity
3678;DHT22;1855;50.934;6.958;2022-12-08T00:00:41;4.60;98.70
3678;DHT22;1855;50.934;6.958;2022-12-08T00:03:09;4.60;98.80
3678;DHT22;1855;50.934;6.958;2022-12-08T00:05:36;4.60;98.80
3678;DHT22;1855;50.934;6.958;2022-12-08T00:08:20;4.60;98.70
3678;DHT22;1855;50.934;6.958;2022-12-08T00:11:05;4.60;98.70
3678;DHT22;1855;50.934;6.958;2022-12-08T00:13:37;4.60;98.70
3678;DHT22;1855;50.934;6.958;2022-12-08T00:16:04;4.60;98.40
3678;DHT22;1855;50.934;6.958;2022-12-08T00:18:32;4.60;98.50
3678;DHT22;1855;50.934;6.958;2022-12-08T00:20:59;4.60;98.80
3678;DHT22;1855;50.934;6.958;2022-12-08T00:23:26;4.60;98.60
3678;DHT22;1855;50.934;6.958;2022-12-08T00:25:53;4.70;98.60
3678;DHT22;1855;50.934;6.958;2022-12-08T00:28:19;4.60;98.40
3678;DHT22;1855;50.934;6.958;2022-12-08T00:30:46;4.60;98.60
3678;DHT22;1855;50.934;6.958;2022-12-08T00:33:13;4.60;98.60
3678;DHT22;1855;50.934;6.958;2022-12-08T00:35:41;4.60;98.50
3678;DHT22;1855;50.934;6.958;2022-12-08T00:38:08;4.70;98.50
3678;DHT22;1855;50.934;6.958;2022-12-08T00:40:34;4.60;98.30
3678;DHT22;1855;50.934;6.958;2022-12-08T00:43:01;4.60;98.40
3678;DHT22;1855;50.934;6.958;2022-12-08T00:45:28;4.60;98.60
3678;DHT22;1855;50.934;6.958;2022-12-08T00:47:54;4.60;98.60
3678;DHT22;1855;50.934;6.958;2022-12-08T00:50:21;4.60;98.60
3678;DHT22;1855;50.934;6.958;2022-12-08T00:52:49;4.50;98.70
3678;DHT22;1855;50.934;6.958;2022-12-08T00:55:16;4.60;98.80
3678;DHT22;1855;50.934;6.958;2022-12-08T00:57:43;4.60;98.80
3678;DHT22;1855;50.934;6.958;2022-12-08T01:00:11;4.60;98.60
3678;DHT22;1855;50.934;6.958;2022-12-08T01:02:37;4.60;98.50
3678;DHT22;1855;50.934;6.958;2022-12-08T01:05:05;4.70;98.40
3678;DHT22;1855;50.934;6.958;2022-12-08T01:07:32;4.70;98.40
3678;DHT22;1855;50.934;6.958;2022-12-08T01:10:00;4.60;98.30
3678;DHT22;1855;50.934;6.958;2022-12-08T01:12:28;4.60;98.30
3678;DHT22;1855;50.934;6.958;2022-12-08T01:14:54;4.60;98.40
3678;DHT22;1855;50.934;6.958;2022-12-08T01:17:21;4.60;98.30
3678;DHT22;1855;50.934;6.958;2022-12-08T01:19:48;4.50;98.50
3678;DHT22;1855;50.934;6.958;2022-12-08T01:22:15;4.60;98.70
3678;DHT22;1855;50.934;6.958;2022-12-08T01:24:42;4.60;98.70
3678;DHT22;1855;50.934;6.958;2022-12-08T01:27:10;4.60;98.80
3678;DHT22;1855;50.934;6.958;2022-12-08T01:29:36;4.60;98.70
3678;DHT22;1855;50.934;6.958;2022-12-08T01:32:03;4.60;98.40
3678;DHT22;1855;50.934;6.958;2022-12-08T01:34:30;4.70;98.10
3678;DHT22;1855;50.934;6.958;2022-12-08T01:36:57;4.70;98.00
3678;DHT22;1855;50.934;6.958;2022-12-08T01:39:24;4.60;97.80
3678;DHT22;1855;50.934;6.958;2022-12-08T01:41:51;4.60;97.90
3678;DHT22;1855;50.934;6.958;2022-12-08T01:44:50;4.60;97.70
3678;DHT22;1855;50.934;6.958;2022-12-08T01:47:18;4.60;97.80
3678;DHT22;1855;50.934;6.958;2022-12-08T01:49:45;4.60;97.80
3678;DHT22;1855;50.934;6.958;2022-12-08T01:52:15;4.60;98.00
3678;DHT22;1855;50.934;6.958;2022-12-08T01:54:47;4.70;97.90
3678;DHT22;1855;50.934;6.958;2022-12-08T01:57:17;4.70;97.70
3678;DHT22;1855;50.934;6.958;2022-12-08T01:59:48;4.70;97.50
3678;DHT22;1855;50.934;6.958;2022-12-08T02:02:17;4.70;97.60
3678;DHT22;1855;50.934;6.958;2022-12-08T02:04:44;4.70;97.40
3678;DHT22;1855;50.934;6.958;2022-12-08T02:07:11;4.70;97.40
3678;DHT22;1855;50.934;6.958;2022-12-08T02:09:39;4.70;97.30
3678;DHT22;1855;50.934;6.958;2022-12-08T02:12:07;4.70;97.50
3678;DHT22;1855;50.934;6.958;2022-12-08T02:14:35;4.70;97.60
3678;DHT22;1855;50.934;6.958;2022-12-08T02:17:06;4.70;97.50
3678;DHT22;1855;50.934;6.958;2022-12-08T02:20:07;4.70;97.40
3678;DHT22;1855;50.934;6.958;2022-12-08T02:22:45;4.70;97.10
3678;DHT22;1855;50.934;6.958;2022-12-08T02:25:19;4.70;97.10
3678;DHT22;1855;50.934;6.958;2022-12-08T02:27:57;4.70;97.10
3678;DHT22;1855;50.934;6.958;2022-12-08T02:30:32;4.70;97.10
3678;DHT22;1855;50.934;6.958;2022-12-08T02:33:25;4.70;97.40
3678;DHT22;1855;50.934;6.958;2022-12-08T02:35:59;4.70;97.30
3678;DHT22;1855;50.934;6.958;2022-12-08T02:38:46;4.70;97.30
3678;DHT22;1855;50.934;6.958;2022-12-08T02:41:22;4.70;97.20
3678;DHT22;1855;50.934;6.958;2022-12-08T02:43:56;4.70;97.30
3678;DHT22;1855;50.934;6.958;2022-12-08T02:46:29;4.70;97.20
3678;DHT22;1855;50.934;6.958;2022-12-08T02:48:57;4.80;96.90
3678;DHT22;1855;50.934;6.958;2022-12-08T02:51:26;4.80;96.90
3678;DHT22;1855;50.934;6.958;2022-12-08T02:53:52;4.80;96.80
3678;DHT22;1855;50.934;6.958;2022-12-08T02:56:34;4.80;96.90
3678;DHT22;1855;50.934;6.958;2022-12-08T02:59:13;4.70;96.80
3678;DHT22;1855;50.934;6.958;2022-12-08T03:02:05;4.80;96.80
3678;DHT22;1855;50.934;6.958;2022-12-08T03:04:42;4.80;97.00
3678;DHT22;1855;50.934;6.958;2022-12-08T03:07:18;4.80;97.10
3678;DHT22;1855;50.934;6.958;2022-12-08T03:09:50;4.80;97.00
3678;DHT22;1855;50.934;6.958;2022-12-08T03:12:26;4.80;97.00
3678;DHT22;1855;50.934;6.958;2022-12-08T03:14:58;4.80;97.10
3678;DHT22;1855;50.934;6.958;2022-12-08T03:17:28;4.80;96.80
3678;DHT22;1855;50.934;6.958;2022-12-08T03:19:57;4.80;96.70
3678;DHT22;1855;50.934;6.958;2022-12-08T03:22:27;4.80;96.50
3678;DHT22;1855;50.934;6.958;2022-12-08T03:24:55;4.80;96.70
3678;DHT22;1855;50.934;6.958;2022-12-08T03:27:24;4.80;97.00
3678;DHT22;1855;50.934;6.958;2022-12-08T03:29:55;4.80;97.10
3678;DHT22;1855;50.934;6.958;2022-12-08T03:32:26;4.80;96.90
3678;DHT22;1855;50.934;6.958;2022-12-08T03:34:55;4.80;96.80
3678;DHT22;1855;50.934;6.958;2022-12-08T03:37:24;4.70;97.00
3678;DHT22;1855;50.934;6.958;2022-12-08T03:39:53;4.80;97.50
3678;DHT22;1855;50.934;6.958;2022-12-08T03:42:20;4.70;97.00
3678;DHT22;1855;50.934;6.958;2022-12-08T03:44:47;4.80;97.00
3678;DHT22;1855;50.934;6.958;2022-12-08T03:47:14;4.80;97.00
3678;DHT22;1855;50.934;6.958;2022-12-08T03:49:41;4.80;97.20
3678;DHT22;1855;50.934;6.958;2022-12-08T03:52:07;4.80;97.20
3678;DHT22;1855;50.934;6.958;2022-12-08T03:54:34;4.80;97.20
3678;DHT22;1855;50.934;6.958;2022-12-08T03:57:02;4.80;97.00
3678;DHT22;1855;50.934;6.958;2022-12-08T03:59:29;4.80;96.90
3678;DHT22;1855;50.934;6.958;2022-12-08T04:01:56;4.80;97.00
3678;DHT22;1855;50.934;6.958;2022-12-08T04:04:23;4.80;97.10
3678;DHT22;1855;50.934;6.958;2022-12-08T04:06:49;4.80;97.20
3678;DHT22;1855;50.934;6.958;2022-12-08T04:09:16;4.80;96.90
3678;DHT22;1855;50.934;6.958;2022-12-08T04:11:43;4.80;96.70
3678;DHT22;1855;50.934;6.958;2022-12-08T04:14:11;4.80;96.80
3678;DHT22;1855;50.934;6.958;2022-12-08T04:16:38;4.80;96.90
3678;DHT22;1855;50.934;6.958;2022-12-08T04:19:05;4.80;97.10
3678;DHT22;1855;50.934;6.958;2022-12-08T04:21:32;4.80;97.50
3678;DHT22;1855;50.934;6.958;2022-12-08T04:23:58;4.80;97.90
3678;DHT22;1855;50.934;6.958;2022-12-08T04:26:25;4.70;98.00
3678;DHT22;1855;50.934;6.958;2022-12-08T04:28:52;4.70;98.30
3678;DHT22;1855;50.934;6.958;2022-12-08T04:31:20;4.70;98.70
3678;DHT22;1855;50.934;6.958;2022-12-08T04:33:47;4.60;98.80
3678;DHT22;1855;50.934;6.958;2022-12-08T04:36:14;4.60;98.90
3678;DHT22;1855;50.934;6.958;2022-12-08T04:38:40;4.60;99.30
3678;DHT22;1855;50.934;6.958;2022-12-08T04:41:07;4.60;99.70
3678;DHT22;1855;50.934;6.958;2022-12-08T04:43:34;4.50;99.80
3678;DHT22;1855;50.934;6.958;2022-12-08T04:46:04;4.50;99.90
3678;DHT22;1855;50.934;6.958;2022-12-08T04:48:32;4.40;99.90
3678;DHT22;1855;50.934;6.958;2022-12-08T04:50:59;4.40;99.90
3678;DHT22;1855;50.934;6.958;2022-12-08T04:53:26;4.40;99.90
3678;DHT22;1855;50.934;6.958;2022-12-08T04:55:52;4.40;99.90
3678;DHT22;1855;50.934;6.958;2022-12-08T04:58:19;4.40;99.90
3678;DHT22;1855;50.934;6.958;2022-12-08T05:00:46;4.40;99.90
3678;DHT22;1855;50.934;6.958;2022-12-08T05:03:14;4.40;99.90
3678;DHT22;1855;50.934;6.958;2022-12-08T05:05:42;4.40;99.90
3678;DHT22;1855;50.934;6.958;2022-12-08T05:08:10;4.40;99.90
3678;DHT22;1855;50.934;6.958;2022-12-08T05:10:37;4.40;99.90
3678;DHT22;1855;50.934;6.958;2022-12-08T05:13:04;4.40;99.90
3678;DHT22;1855;50.934;6.958;2022-12-08T05:15:31;4.40;99.90
3678;DHT22;1855;50.934;6.958;2022-12-08T05:17:58;4.40;99.90
3678;DHT22;1855;50.934;6.958;2022-12-08T05:20:25;4.40;99.90
3678;DHT22;1855;50.934;6.958;2022-12-08T05:22:53;4.40;99.90
3678;DHT22;1855;50.934;6.958;2022-12-08T05:25:19;4.50;99.90
3678;DHT22;1855;50.934;6.958;2022-12-08T05:27:46;4.40;99.90
3678;DHT22;1855;50.934;6.958;2022-12-08T05:30:13;4.40;99.90
3678;DHT22;1855;50.934;6.958;2022-12-08T05:32:40;4.40;99.90
3678;DHT22;1855;50.934;6.958;2022-12-08T05:35:07;4.40;99.90
3678;DHT22;1855;50.934;6.958;2022-12-08T05:37:34;4.40;99.90
3678;DHT22;1855;50.934;6.958;2022-12-08T05:40:03;4.40;99.90
3678;DHT22;1855;50.934;6.958;2022-12-08T05:42:29;4.40;99.90
3678;DHT22;1855;50.934;6.958;2022-12-08T05:44:56;4.40;99.90
3678;DHT22;1855;50.934;6.958;2022-12-08T05:47:23;4.50;99.90
3678;DHT22;1855;50.934;6.958;2022-12-08T05:49:50;4.40;99.90
3678;DHT22;1855;50.934;6.958;2022-12-08T05:52:16;4.40;99.90
3678;DHT22;1855;50.934;6.958;2022-12-08T05:54:43;4.40;99.90
3678;DHT22;1855;50.934;6.958;2022-12-08T05:57:11;4.50;99.90
3678;DHT22;1855;50.934;6.958;2022-12-08T05:59:38;4.50;99.90
3678;DHT22;1855;50.934;6.958;2022-12-08T06:02:05;4.50;99.90
3678;DHT22;1855;50.934;6.958;2022-12-08T06:04:33;4.50;99.90
3678;DHT22;1855;50.934;6.958;2022-12-08T06:07:00;4.50;99.60
3678;DHT22;1855;50.934;6.958;2022-12-08T06:09:26;4.50;99.60
3678;DHT22;1855;50.934;6.958;2022-12-08T06:11:53;4.50;99.70
3678;DHT22;1855;50.934;6.958;2022-12-08T06:14:21;4.50;99.60
3678;DHT22;1855;50.934;6.958;2022-12-08T06:16:48;4.50;99.20
3678;DHT22;1855;50.934;6.958;2022-12-08T06:19:15;4.50;98.90
3678;DHT22;1855;50.934;6.958;2022-12-08T06:21:42;4.50;98.80
3678;DHT22;1855;50.934;6.958;2022-12-08T06:24:08;4.50;98.70
3678;DHT22;1855;50.934;6.958;2022-12-08T06:26:36;4.50;99.10
3678;DHT22;1855;50.934;6.958;2022-12-08T06:29:04;4.50;98.70
3678;DHT22;1855;50.934;6.958;2022-12-08T06:31:32;4.50;98.60
3678;DHT22;1855;50.934;6.958;2022-12-08T06:33:59;4.50;98.50
3678;DHT22;1855;50.934;6.958;2022-12-08T06:36:26;4.50;98.60
3678;DHT22;1855;50.934;6.958;2022-12-08T06:38:54;4.50;98.70
3678;DHT22;1855;50.934;6.958;2022-12-08T06:41:20;4.40;98.40
3678;DHT22;1855;50.934;6.958;2022-12-08T06:43:47;4.40;98.40
3678;DHT22;1855;50.934;6.958;2022-12-08T06:46:16;4.40;98.40
3678;DHT22;1855;50.934;6.958;2022-12-08T06:48:44;4.40;98.40
3678;DHT22;1855;50.934;6.958;2022-12-08T06:51:13;4.40;98.30
3678;DHT22;1855;50.934;6.958;2022-12-08T06:53:41;4.50;98.20
3678;DHT22;1855;50.934;6.958;2022-12-08T06:56:08;4.40;97.80
3678;DHT22;1855;50.934;6.958;2022-12-08T06:58:35;4.40;97.90
3678;DHT22;1855;50.934;6.958;2022-12-08T07:01:03;4.50;97.90
3678;DHT22;1855;50.934;6.958;2022-12-08T07:03:30;4.40;97.70
3678;DHT22;1855;50.934;6.958;2022-12-08T07:05:59;4.50;97.70
3678;DHT22;1855;50.934;6.958;2022-12-08T07:08:25;4.40;97.60
3678;DHT22;1855;50.934;6.958;2022-12-08T07:10:52;4.50;97.70
3678;DHT22;1855;50.934;6.958;2022-12-08T07:13:19;4.50;97.70
3678;DHT22;1855;50.934;6.958;2022-12-08T07:15:47;4.50;97.80
3678;DHT22;1855;50.934;6.958;2022-12-08T07:18:15;4.40;98.00
3678;DHT22;1855;50.934;6.958;2022-12-08T07:20:41;4.40;98.00
3678;DHT22;1855;50.934;6.958;2022-12-08T07:23:10;4.40;98.10
3678;DHT22;1855;50.934;6.958;2022-12-08T07:25:36;4.50;97.80
3678;DHT22;1855;50.934;6.958;2022-12-08T07:28:08;4.50;97.60
3678;DHT22;1855;50.934;6.958;2022-12-08T07:30:35;4.50;97.60
3678;DHT22;1855;50.934;6.958;2022-12-08T07:33:02;4.50;97.40
3678;DHT22;1855;50.934;6.958;2022-12-08T07:35:30;4.50;97.30
3678;DHT22;1855;50.934;6.958;2022-12-08T07:37:56;4.50;97.50
3678;DHT22;1855;50.934;6.958;2022-12-08T07:40:25;4.40;97.70
3678;DHT22;1855;50.934;6.958;2022-12-08T07:42:51;4.40;98.20
3678;DHT22;1855;50.934;6.958;2022-12-08T07:45:18;4.40;98.30
3678;DHT22;1855;50.934;6.958;2022-12-08T07:47:45;4.30;98.20
3678;DHT22;1855;50.934;6.958;2022-12-08T07:50:12;4.30;98.30
3678;DHT22;1855;50.934;6.958;2022-12-08T07:52:38;4.30;98.50
3678;DHT22;1855;50.934;6.958;2022-12-08T07:55:06;4.30;98.30
3678;DHT22;1855;50.934;6.958;2022-12-08T07:57:34;4.20;98.70
3678;DHT22;1855;50.934;6.958;2022-12-08T08:00:02;4.10;99.20
3678;DHT22;1855;50.934;6.958;2022-12-08T08:02:29;4.10;99.80
3678;DHT22;1855;50.934;6.958;2022-12-08T08:04:56;4.00;99.90
3678;DHT22;1855;50.934;6.958;2022-12-08T08:07:22;4.00;99.90
3678;DHT22;1855;50.934;6.958;2022-12-08T08:09:49;3.90;99.90
3678;DHT22;1855;50.934;6.958;2022-12-08T08:12:16;3.90;99.90
3678;DHT22;1855;50.934;6.958;2022-12-08T08:14:44;3.90;99.90
3678;DHT22;1855;50.934;6.958;2022-12-08T08:17:11;3.90;99.90
3678;DHT22;1855;50.934;6.958;2022-12-08T08:19:38;3.90;99.90
3678;DHT22;1855;50.934;6.958;2022-12-08T08:22:04;3.90;99.90
3678;DHT22;1855;50.934;6.958;2022-12-08T08:24:31;3.90;99.90
3678;DHT22;1855;50.934;6.958;2022-12-08T08:26:58;3.80;99.90
3678;DHT22;1855;50.934;6.958;2022-12-08T08:29:24;3.80;99.90
3678;DHT22;1855;50.934;6.958;2022-12-08T08:31:52;3.80;99.90
3678;DHT22;1855;50.934;6.958;2022-12-08T08:34:21;3.80;99.90
3678;DHT22;1855;50.934;6.958;2022-12-08T08:36:48;3.90;99.90
3678;DHT22;1855;50.934;6.958;2022-12-08T08:39:14;3.90;99.90
3678;DHT22;1855;50.934;6.958;2022-12-08T08:41:41;3.90;99.90
3678;DHT22;1855;50.934;6.958;2022-12-08T08:44:08;3.90;99.90
3678;DHT22;1855;50.934;6.958;2022-12-08T08:46:35;3.90;99.90
3678;DHT22;1855;50.934;6.958;2022-12-08T08:49:03;3.90;99.90
3678;DHT22;1855;50.934;6.958;2022-12-08T08:51:30;3.90;99.90
3678;DHT22;1855;50.934;6.958;2022-12-08T08:53:57;3.90;99.90
3678;DHT22;1855;50.934;6.958;2022-12-08T08:56:24;3.90;99.90
3678;DHT22;1855;50.934;6.958;2022-12-08T08:58:52;3.90;99.90
3678;DHT22;1855;50.934;6.958;2022-12-08T09:01:21;3.90;99.90
3678;DHT22;1855;50.934;6.958;2022-12-08T09:03:48;4.00;99.90
3678;DHT22;1855;50.934;6.958;2022-12-08T09:06:16;4.00;99.80
3678;DHT22;1855;50.934;6.958;2022-12-08T09:08:44;4.00;99.80
3678;DHT22;1855;50.934;6.958;2022-12-08T09:11:11;4.00;99.70
3678;DHT22;1855;50.934;6.958;2022-12-08T09:13:38;4.00;99.30
3678;DHT22;1855;50.934;6.958;2022-12-08T09:16:07;4.10;99.30
3678;DHT22;1855;50.934;6.958;2022-12-08T09:18:34;4.00;99.40
3678;DHT22;1855;50.934;6.958;2022-12-08T09:21:03;4.10;99.10
3678;DHT22;1855;50.934;6.958;2022-12-08T09:23:32;4.10;99.10
3678;DHT22;1855;50.934;6.958;2022-12-08T09:25:59;4.10;99.20
3678;DHT22;1855;50.934;6.958;2022-12-08T09:28:26;4.10;98.90
3678;DHT22;1855;50.934;6.958;2022-12-08T09:30:53;4.10;98.50
3678;DHT22;1855;50.934;6.958;2022-12-08T09:33:19;4.10;98.40
3678;DHT22;1855;50.934;6.958;2022-12-08T09:35:46;4.10;98.50
3678;DHT22;1855;50.934;6.958;2022-12-08T09:38:13;4.20;98.70
3678;DHT22;1855;50.934;6.958;2022-12-08T09:40:48;4.20;98.40
3678;DHT22;1855;50.934;6.958;2022-12-08T09:43:37;4.30;98.00
3678;DHT22;1855;50.934;6.958;2022-12-08T09:46:09;4.30;98.00
3678;DHT22;1855;50.934;6.958;2022-12-08T09:48:39;4.30;97.30
3678;DHT22;1855;50.934;6.958;2022-12-08T09:51:08;4.30;97.40
3678;DHT22;1855;50.934;6.958;2022-12-08T09:53:41;4.30;97.30
3678;DHT22;1855;50.934;6.958;2022-12-08T09:56:13;4.30;97.50
3678;DHT22;1855;50.934;6.958;2022-12-08T09:58:46;4.40;97.30
3678;DHT22;1855;50.934;6.958;2022-12-08T10:01:17;4.40;97.30
3678;DHT22;1855;50.934;6.958;2022-12-08T10:03:44;4.40;96.90
3678;DHT22;1855;50.934;6.958;2022-12-08T10:06:26;4.40;96.40
3678;DHT22;1855;50.934;6.958;2022-12-08T10:09:03;4.50;96.00
3678;DHT22;1855;50.934;6.958;2022-12-08T10:11:41;4.40;95.30
3678;DHT22;1855;50.934;6.958;2022-12-08T10:14:17;4.40;95.20
3678;DHT22;1855;50.934;6.958;2022-12-08T10:16:48;4.40;95.10
3678;DHT22;1855;50.934;6.958;2022-12-08T10:19:20;4.40;94.50
3678;DHT22;1855;50.934;6.958;2022-12-08T10:21:47;4.30;95.10
3678;DHT22;1855;50.934;6.958;2022-12-08T10:24:19;4.30;95.30
3678;DHT22;1855;50.934;6.958;2022-12-08T10:26:50;4.30;95.60
3678;DHT22;1855;50.934;6.958;2022-12-08T10:29:16;4.30;95.70
3678;DHT22;1855;50.934;6.958;2022-12-08T10:31:43;4.40;96.00
3678;DHT22;1855;50.934;6.958;2022-12-08T10:34:15;4.40;95.70
3678;DHT22;1855;50.934;6.958;2022-12-08T10:36:47;4.40;95.90
3678;DHT22;1855;50.934;6.958;2022-12-08T10:39:32;4.40;95.70
3678;DHT22;1855;50.934;6.958;2022-12-08T10:42:05;4.40;96.00
3678;DHT22;1855;50.934;6.958;2022-12-08T10:44:36;4.50;95.80
3678;DHT22;1855;50.934;6.958;2022-12-08T10:47:10;4.50;96.00
3678;DHT22;1855;50.934;6.958;2022-12-08T10:49:37;4.50;96.00
3678;DHT22;1855;50.934;6.958;2022-12-08T10:52:08;4.60;95.60
3678;DHT22;1855;50.934;6.958;2022-12-08T10:54:41;4.60;95.00
3678;DHT22;1855;50.934;6.958;2022-12-08T10:57:19;4.60;95.00
3678;DHT22;1855;50.934;6.958;2022-12-08T10:59:46;4.50;94.90
3678;DHT22;1855;50.934;6.958;2022-12-08T11:02:18;4.50;94.90
3678;DHT22;1855;50.934;6.958;2022-12-08T11:04:45;4.50;95.00
3678;DHT22;1855;50.934;6.958;2022-12-08T11:07:20;4.50;94.90
3678;DHT22;1855;50.934;6.958;2022-12-08T11:09:52;4.50;95.10
3678;DHT22;1855;50.934;6.958;2022-12-08T11:12:21;4.50;95.40
3678;DHT22;1855;50.934;6.958;2022-12-08T11:14:50;4.50;94.60
3678;DHT22;1855;50.934;6.958;2022-12-08T11:17:24;4.50;94.60
3678;DHT22;1855;50.934;6.958;2022-12-08T11:19:57;4.50;94.50
3678;DHT22;1855;50.934;6.958;2022-12-08T11:22:29;4.40;94.70
3678;DHT22;1855;50.934;6.958;2022-12-08T11:25:00;4.30;94.90
3678;DHT22;1855;50.934;6.958;2022-12-08T11:27:28;4.20;95.10
3678;DHT22;1855;50.934;6.958;2022-12-08T11:29:57;4.30;94.70
3678;DHT22;1855;50.934;6.958;2022-12-08T11:32:24;4.20;94.90
3678;DHT22;1855;50.934;6.958;2022-12-08T11:34:54;4.20;95.20
3678;DHT22;1855;50.934;6.958;2022-12-08T11:37:25;4.20;94.60
3678;DHT22;1855;50.934;6.958;2022-12-08T11:39:57;4.30;93.80
3678;DHT22;1855;50.934;6.958;2022-12-08T11:42:33;4.30;94.00
3678;DHT22;1855;50.934;6.958;2022-12-08T11:45:04;4.30;93.90
3678;DHT22;1855;50.934;6.958;2022-12-08T11:47:36;4.30;93.20
3678;DHT22;1855;50.934;6.958;2022-12-08T11:50:15;4.40;92.80
3678;DHT22;1855;50.934;6.958;2022-12-08T11:52:46;4.40;91.90
3678;DHT22;1855;50.934;6.958;2022-12-08T11:55:26;4.40;91.60
3678;DHT22;1855;50.934;6.958;2022-12-08T11:58:00;4.50;91.70
3678;DHT22;1855;50.934;6.958;2022-12-08T12:00:27;4.60;91.70
3678;DHT22;1855;50.934;6.958;2022-12-08T12:02:59;4.60;91.70
3678;DHT22;1855;50.934;6.958;2022-12-08T12:05:30;4.60;91.80
3678;DHT22;1855;50.934;6.958;2022-12-08T12:08:08;4.70;91.80
3678;DHT22;1855;50.934;6.958;2022-12-08T12:10:56;4.70;92.30
3678;DHT22;1855;50.934;6.958;2022-12-08T12:13:57;4.80;92.40
3678;DHT22;1855;50.934;6.958;2022-12-08T12:19:19;4.80;93.10
3678;DHT22;1855;50.934;6.958;2022-12-08T12:21:49;4.80;93.20
3678;DHT22;1855;50.934;6.958;2022-12-08T12:24:19;4.90;93.20
3678;DHT22;1855;50.934;6.958;2022-12-08T12:26:54;4.90;93.40
3678;DHT22;1855;50.934;6.958;2022-12-08T12:29:26;4.90;93.70
3678;DHT22;1855;50.934;6.958;2022-12-08T12:31:56;5.00;93.60
3678;DHT22;1855;50.934;6.958;2022-12-08T12:34:26;5.00;93.60
3678;DHT22;1855;50.934;6.958;2022-12-08T12:36:56;5.00;93.60
3678;DHT22;1855;50.934;6.958;2022-12-08T12:39:26;5.00;93.70
3678;DHT22;1855;50.934;6.958;2022-12-08T12:41:57;4.90;94.10
3678;DHT22;1855;50.934;6.958;2022-12-08T12:44:37;5.00;94.20
3678;DHT22;1855;50.934;6.958;2022-12-08T12:47:09;5.00;94.10
3678;DHT22;1855;50.934;6.958;2022-12-08T12:49:50;5.10;93.90
3678;DHT22;1855;50.934;6.958;2022-12-08T12:52:43;5.00;93.60
3678;DHT22;1855;50.934;6.958;2022-12-08T12:55:35;5.00;93.50
3678;DHT22;1855;50.934;6.958;2022-12-08T12:58:35;5.10;93.70
3678;DHT22;1855;50.934;6.958;2022-12-08T13:04:08;5.20;93.50
3678;DHT22;1855;50.934;6.958;2022-12-08T13:06:39;5.20;93.30
3678;DHT22;1855;50.934;6.958;2022-12-08T13:09:21;5.20;92.30
3678;DHT22;1855;50.934;6.958;2022-12-08T13:11:50;5.20;92.10
3678;DHT22;1855;50.934;6.958;2022-12-08T13:14:32;5.20;91.70
3678;DHT22;1855;50.934;6.958;2022-12-08T13:17:00;5.20;91.60
3678;DHT22;1855;50.934;6.958;2022-12-08T13:19:32;5.20;91.90
3678;DHT22;1855;50.934;6.958;2022-12-08T13:22:01;5.20;91.90
3678;DHT22;1855;50.934;6.958;2022-12-08T13:24:33;5.30;91.00
3678;DHT22;1855;50.934;6.958;2022-12-08T13:27:29;5.30;90.20
3678;DHT22;1855;50.934;6.958;2022-12-08T13:33:07;5.30;90.60
3678;DHT22;1855;50.934;6.958;2022-12-08T13:35:39;5.30;90.20
3678;DHT22;1855;50.934;6.958;2022-12-08T13:38:08;5.30;90.50
3678;DHT22;1855;50.934;6.958;2022-12-08T13:40:40;5.30;90.10
3678;DHT22;1855;50.934;6.958;2022-12-08T13:43:14;5.30;90.00
3678;DHT22;1855;50.934;6.958;2022-12-08T13:45:44;5.40;88.80
3678;DHT22;1855;50.934;6.958;2022-12-08T13:48:17;5.40;87.60
3678;DHT22;1855;50.934;6.958;2022-12-08T13:50:50;5.40;86.60
3678;DHT22;1855;50.934;6.958;2022-12-08T13:53:21;5.30;87.10
3678;DHT22;1855;50.934;6.958;2022-12-08T13:55:50;5.30;86.70
3678;DHT22;1855;50.934;6.958;2022-12-08T13:58:21;5.40;85.70
3678;DHT22;1855;50.934;6.958;2022-12-08T14:01:01;5.40;86.00
3678;DHT22;1855;50.934;6.958;2022-12-08T14:03:35;5.30;86.90
3678;DHT22;1855;50.934;6.958;2022-12-08T14:06:03;5.30;86.30
3678;DHT22;1855;50.934;6.958;2022-12-08T14:08:33;5.30;86.00
3678;DHT22;1855;50.934;6.958;2022-12-08T14:11:04;5.30;85.50
3678;DHT22;1855;50.934;6.958;2022-12-08T14:13:32;5.30;86.90
3678;DHT22;1855;50.934;6.958;2022-12-08T14:15:59;5.30;87.50
3678;DHT22;1855;50.934;6.958;2022-12-08T14:18:29;5.30;85.50
3678;DHT22;1855;50.934;6.958;2022-12-08T14:21:02;5.30;86.00
3678;DHT22;1855;50.934;6.958;2022-12-08T14:23:33;5.20;85.40
3678;DHT22;1855;50.934;6.958;2022-12-08T14:26:01;5.20;84.30
3678;DHT22;1855;50.934;6.958;2022-12-08T14:28:30;5.20;85.10
3678;DHT22;1855;50.934;6.958;2022-12-08T14:30:57;5.20;85.20
3678;DHT22;1855;50.934;6.958;2022-12-08T14:33:24;5.20;85.50
3678;DHT22;1855;50.934;6.958;2022-12-08T14:35:53;5.20;85.40
3678;DHT22;1855;50.934;6.958;2022-12-08T14:38:23;5.20;85.10
3678;DHT22;1855;50.934;6.958;2022-12-08T14:41:03;5.20;86.00
3678;DHT22;1855;50.934;6.958;2022-12-08T14:43:31;5.20;85.70
3678;DHT22;1855;50.934;6.958;2022-12-08T14:45:59;5.20;86.00
3678;DHT22;1855;50.934;6.958;2022-12-08T14:48:39;5.20;84.80
3678;DHT22;1855;50.934;6.958;2022-12-08T14:51:15;5.10;85.10
3678;DHT22;1855;50.934;6.958;2022-12-08T14:53:46;5.10;84.90
3678;DHT22;1855;50.934;6.958;2022-12-08T14:56:18;5.10;84.70
3678;DHT22;1855;50.934;6.958;2022-12-08T14:58:46;5.10;84.70
3678;DHT22;1855;50.934;6.958;2022-12-08T15:01:16;5.10;84.90
3678;DHT22;1855;50.934;6.958;2022-12-08T15:03:44;5.10;85.20
3678;DHT22;1855;50.934;6.958;2022-12-08T15:06:11;5.00;85.60
3678;DHT22;1855;50.934;6.958;2022-12-08T15:08:55;5.10;85.70
3678;DHT22;1855;50.934;6.958;2022-12-08T15:11:32;5.00;84.90
3678;DHT22;1855;50.934;6.958;2022-12-08T15:13:59;5.00;86.50
3678;DHT22;1855;50.934;6.958;2022-12-08T15:16:29;5.00;86.20
3678;DHT22;1855;50.934;6.958;2022-12-08T15:19:12;4.90;86.40
3678;DHT22;1855;50.934;6.958;2022-12-08T15:21:40;4.90;87.00
3678;DHT22;1855;50.934;6.958;2022-12-08T15:24:10;4.90;87.30
3678;DHT22;1855;50.934;6.958;2022-12-08T15:26:40;4.90;87.40
3678;DHT22;1855;50.934;6.958;2022-12-08T15:29:15;5.00;90.10
3678;DHT22;1855;50.934;6.958;2022-12-08T15:31:43;5.00;87.90
3678;DHT22;1855;50.934;6.958;2022-12-08T15:34:10;5.00;86.40
3678;DHT22;1855;50.934;6.958;2022-12-08T15:36:37;5.00;87.10
3678;DHT22;1855;50.934;6.958;2022-12-08T15:39:05;5.00;86.90
3678;DHT22;1855;50.934;6.958;2022-12-08T15:41:33;5.00;86.30
3678;DHT22;1855;50.934;6.958;2022-12-08T15:44:00;5.00;86.00
3678;DHT22;1855;50.934;6.958;2022-12-08T15:46:26;5.00;85.50
3678;DHT22;1855;50.934;6.958;2022-12-08T15:48:53;4.90;85.90
3678;DHT22;1855;50.934;6.958;2022-12-08T15:51:20;4.90;85.80
3678;DHT22;1855;50.934;6.958;2022-12-08T15:53:46;4.90;85.90
3678;DHT22;1855;50.934;6.958;2022-12-08T15:56:13;4.80;86.20
3678;DHT22;1855;50.934;6.958;2022-12-08T15:58:41;4.80;85.90
3678;DHT22;1855;50.934;6.958;2022-12-08T16:01:08;4.70;86.60
3678;DHT22;1855;50.934;6.958;2022-12-08T16:03:35;4.80;86.50
3678;DHT22;1855;50.934;6.958;2022-12-08T16:06:02;4.70;86.70
3678;DHT22;1855;50.934;6.958;2022-12-08T16:08:29;4.70;87.30
3678;DHT22;1855;50.934;6.958;2022-12-08T16:10:56;4.70;87.10
3678;DHT22;1855;50.934;6.958;2022-12-08T16:13:45;4.60;87.70
3678;DHT22;1855;50.934;6.958;2022-12-08T16:16:18;4.50;88.00
3678;DHT22;1855;50.934;6.958;2022-12-08T16:18:47;4.50;88.80
3678;DHT22;1855;50.934;6.958;2022-12-08T16:21:16;4.50;88.90
3678;DHT22;1855;50.934;6.958;2022-12-08T16:23:43;4.50;88.80
3678;DHT22;1855;50.934;6.958;2022-12-08T16:26:11;4.50;88.40
3678;DHT22;1855;50.934;6.958;2022-12-08T16:28:38;4.50;87.00
3678;DHT22;1855;50.934;6.958;2022-12-08T16:31:08;4.40;87.10
3678;DHT22;1855;50.934;6.958;2022-12-08T16:33:37;4.40;87.20
3678;DHT22;1855;50.934;6.958;2022-12-08T16:36:04;4.30;87.50
3678;DHT22;1855;50.934;6.958;2022-12-08T16:38:31;4.20;87.60
3678;DHT22;1855;50.934;6.958;2022-12-08T16:40:58;4.20;87.80
3678;DHT22;1855;50.934;6.958;2022-12-08T16:43:42;4.20;87.70